Observations for SOUTHAMPTON WX CNTR, United Kingdom (EGHI)

EGHI 180520Z 26005KT 220V300 9999 BKN018 14/11 Q1018
EGHI 180450Z 25005KT 220V290 9999 BKN018 14/11 Q1018
EGHI 172150Z 21007KT 180V240 3500 -RADZ OVC004 14/13 Q1017  
EGHI 172120Z 21007KT 180V240 3000 -RADZ OVC004 14/13 Q1017  
EGHI 172050Z 21007KT 180V240 3000 -RADZ OVC002 14/13 Q1017  
EGHI 172020Z 21007KT 180V240 3000 -RADZ OVC002 14/13 Q1017  
EGHI 171950Z 22007KT 180V250 3000 -RADZ OVC003 14/13 Q1017  
EGHI 171920Z 22007KT 180V250 3000 -RADZ OVC002 14/13 Q1017  
EGHI 171850Z 21008KT 3000 -RADZ BKN004 14/13 Q1017  
EGHI 171820Z 22011KT 190V250 3500 -RADZ BKN004 14/13 Q1017  
EGHI 171750Z 22013KT 190V250 3500 -RADZ BKN004 14/12 Q1017  
EGHI 171720Z 22013KT 190V250 4000 SHRA BKN005 14/12 Q1017   
EGHI 171650Z 22012KT 190V250 9999 -SHRA FEW006 BKN009 14/12 Q1017   
EGHI 171620Z 22011KT 180V250 8000 -SHRA FEW006 BKN009 13/12 Q1017   
EGHI 171550Z 23015KT 210V270 8000 -SHRA BKN009 14/12 Q1017  
EGHI 171520Z 23014KT 200V260 9000 -SHRA BKN009 14/12 Q1017  
EGHI 171450Z 22015KT 9999 BKN013 14/11 Q1017
EGHI 171420Z 22015KT 190V250 9999 BKN017 15/10 Q1017
EGHI 171350Z 22014KT 200V260 9999 SCT020 SCT035 15/10 Q1017 
EGHI 171320Z 22012KT 190V250 9999 SCT020 SCT035 16/10 Q1017 
EGHI 171250Z 22011KT 190V260 9000 VCSH SCT020 BKN025 15/10 Q1017
EGHI 171220Z 23011KT 200V260 9000 SHRA SCT022 SCT031 15/11 Q1017
EGHI 171150Z 21012KT 180V250 9999 SCT024 SCT031 15/10 Q1017 
EGHI 171120Z 23010KT 200V260 9999 SCT023 SCT031 16/10 Q1017 
EGHI 171050Z 23012KT 200V260 9999 FEW025 SCT030 16/09 Q1017 
EGHI 171020Z 22010KT 9999 SCT028 16/09 Q1017
EGHI 170950Z 25010KT 220V280 9999 FEW026 SCT035 16/08 Q1017 
EGHI 170920Z 24007KT 200V280 9999 FEW026 SCT034 16/08 Q1017 
EGHI 170850Z 25007KT 200V280 9999 SCT026 16/08 Q1017
EGHI 170820Z 26009KT 220V300 9999 SCT024 15/08 Q1017
EGHI 170750Z 24007KT 210V290 9999 FEW020 15/09 Q1017
EGHI 170720Z 24009KT 210V270 9999 FEW032 14/10 Q1017
EGHI 170650Z 24007KT 9999 FEW032 13/10 Q1017
EGHI 170620Z 24006KT 200V270 9999 VCSH FEW032 13/10 Q1017   
EGHI 170550Z 23006KT 190V270 9999 VCSH FEW032 12/10 Q1017